sensor_id;sensor_type;location;lat;lon;timestamp;pressure;altitude;pressure_sealevel;temperature;humidity
78665;BME280;67981;51.022;-2.870;2023-06-14T00:01:37;101200.88;;;18.95;60.94
78665;BME280;67981;51.022;-2.870;2023-06-14T00:04:03;101194.78;;;18.90;62.08
78665;BME280;67981;51.022;-2.870;2023-06-14T00:06:31;101195.66;;;18.92;61.95
78665;BME280;67981;51.022;-2.870;2023-06-14T00:08:56;101193.00;;;18.58;63.53
78665;BME280;67981;51.022;-2.870;2023-06-14T00:11:21;101199.97;;;18.65;63.43
78665;BME280;67981;51.022;-2.870;2023-06-14T00:13:47;101196.47;;;18.58;63.80
78665;BME280;67981;51.022;-2.870;2023-06-14T00:16:12;101196.47;;;18.51;64.60
78665;BME280;67981;51.022;-2.870;2023-06-14T00:18:38;101197.31;;;18.45;64.85
78665;BME280;67981;51.022;-2.870;2023-06-14T00:21:04;101186.00;;;18.46;64.91
78665;BME280;67981;51.022;-2.870;2023-06-14T00:23:29;101204.31;;;18.61;63.50
78665;BME280;67981;51.022;-2.870;2023-06-14T00:25:55;101201.66;;;18.40;64.92
78665;BME280;67981;51.022;-2.870;2023-06-14T00:28:20;101200.75;;;18.33;64.57
78665;BME280;67981;51.022;-2.870;2023-06-14T00:30:45;101205.97;;;18.30;65.17
78665;BME280;67981;51.022;-2.870;2023-06-14T00:33:12;101214.69;;;18.29;64.86
78665;BME280;67981;51.022;-2.870;2023-06-14T00:35:37;101209.41;;;18.22;64.70
78665;BME280;67981;51.022;-2.870;2023-06-14T00:38:03;101207.59;;;18.00;65.11
78665;BME280;67981;51.022;-2.870;2023-06-14T00:40:28;101215.44;;;18.03;65.84
78665;BME280;67981;51.022;-2.870;2023-06-14T00:42:54;101204.97;;;17.92;65.53
78665;BME280;67981;51.022;-2.870;2023-06-14T00:45:19;101214.53;;;17.93;66.14
78665;BME280;67981;51.022;-2.870;2023-06-14T00:47:46;101218.88;;;17.90;66.14
78665;BME280;67981;51.022;-2.870;2023-06-14T00:50:11;101207.56;;;17.91;66.15
78665;BME280;67981;51.022;-2.870;2023-06-14T00:52:38;101216.25;;;17.91;66.64
78665;BME280;67981;51.022;-2.870;2023-06-14T00:55:05;101213.69;;;17.99;66.42
78665;BME280;67981;51.022;-2.870;2023-06-14T00:57:31;101216.25;;;17.91;65.91
78665;BME280;67981;51.022;-2.870;2023-06-14T00:59:56;101197.94;;;17.81;66.33
78665;BME280;67981;51.022;-2.870;2023-06-14T01:02:22;101214.44;;;17.75;66.67
78665;BME280;67981;51.022;-2.870;2023-06-14T01:04:49;101219.72;;;17.81;65.71
78665;BME280;67981;51.022;-2.870;2023-06-14T01:07:21;101214.50;;;17.84;66.80
78665;BME280;67981;51.022;-2.870;2023-06-14T01:15:32;101218.72;;;17.60;67.57
78665;BME280;67981;51.022;-2.870;2023-06-14T01:17:58;101218.69;;;17.54;67.44
78665;BME280;67981;51.022;-2.870;2023-06-14T01:20:30;101220.44;;;17.61;67.46
78665;BME280;67981;51.022;-2.870;2023-06-14T01:22:56;101211.59;;;17.36;68.92
78665;BME280;67981;51.022;-2.870;2023-06-14T01:25:22;101223.78;;;17.42;68.79
78665;BME280;67981;51.022;-2.870;2023-06-14T01:27:49;101221.13;;;17.33;68.04
78665;BME280;67981;51.022;-2.870;2023-06-14T01:30:16;101234.16;;;17.33;67.19
78665;BME280;67981;51.022;-2.870;2023-06-14T01:32:42;101235.88;;;17.31;66.24
78665;BME280;67981;51.022;-2.870;2023-06-14T01:35:08;101227.13;;;17.26;67.96
78665;BME280;67981;51.022;-2.870;2023-06-14T01:37:34;101220.97;;;17.15;67.10
78665;BME280;67981;51.022;-2.870;2023-06-14T01:40:00;101223.59;;;17.16;67.15
78665;BME280;67981;51.022;-2.870;2023-06-14T01:42:27;101226.22;;;17.18;67.18
78665;BME280;67981;51.022;-2.870;2023-06-14T01:44:53;101223.63;;;17.24;66.15
78665;BME280;67981;51.022;-2.870;2023-06-14T01:47:19;101221.84;;;17.15;66.33
78665;BME280;67981;51.022;-2.870;2023-06-14T01:49:46;101220.09;;;17.14;67.10
78665;BME280;67981;51.022;-2.870;2023-06-14T01:52:11;101216.50;;;16.97;65.88
78665;BME280;67981;51.022;-2.870;2023-06-14T01:54:37;101214.81;;;17.05;66.48
78665;BME280;67981;51.022;-2.870;2023-06-14T01:57:07;101220.97;;;17.15;65.90
78665;BME280;67981;51.022;-2.870;2023-06-14T01:59:33;101214.94;;;17.20;63.52
78665;BME280;67981;51.022;-2.870;2023-06-14T02:02:01;101211.47;;;17.21;62.11
78665;BME280;67981;51.022;-2.870;2023-06-14T02:04:26;101209.66;;;17.13;62.65
78665;BME280;67981;51.022;-2.870;2023-06-14T02:06:52;101213.00;;;16.99;63.37
78665;BME280;67981;51.022;-2.870;2023-06-14T02:09:17;101206.03;;;16.95;62.47
78665;BME280;67981;51.022;-2.870;2023-06-14T02:11:43;101204.34;;;17.01;62.22
78665;BME280;67981;51.022;-2.870;2023-06-14T02:14:08;101210.34;;;16.92;62.74
78665;BME280;67981;51.022;-2.870;2023-06-14T02:16:36;101213.00;;;16.96;62.30
78665;BME280;67981;51.022;-2.870;2023-06-14T02:19:02;101208.63;;;16.91;62.78
78665;BME280;67981;51.022;-2.870;2023-06-14T02:21:27;101206.00;;;16.91;61.42
78665;BME280;67981;51.022;-2.870;2023-06-14T02:23:53;101216.44;;;16.92;61.33
78665;BME280;67981;51.022;-2.870;2023-06-14T02:26:18;101206.06;;;16.97;60.58
78665;BME280;67981;51.022;-2.870;2023-06-14T02:28:43;101206.94;;;16.96;60.22
78665;BME280;67981;51.022;-2.870;2023-06-14T02:31:09;101212.06;;;16.90;60.17
78665;BME280;67981;51.022;-2.870;2023-06-14T02:33:34;101218.16;;;16.89;60.34
78665;BME280;67981;51.022;-2.870;2023-06-14T02:36:00;101215.47;;;16.80;61.12
78665;BME280;67981;51.022;-2.870;2023-06-14T02:38:27;101213.72;;;16.79;61.34
78665;BME280;67981;51.022;-2.870;2023-06-14T02:40:53;101203.22;;;16.73;60.35
78665;BME280;67981;51.022;-2.870;2023-06-14T02:43:18;101220.59;;;16.74;61.30
78665;BME280;67981;51.022;-2.870;2023-06-14T02:45:43;101211.84;;;16.67;60.91
78665;BME280;67981;51.022;-2.870;2023-06-14T02:48:09;101218.00;;;16.72;60.82
78665;BME280;67981;51.022;-2.870;2023-06-14T02:50:36;101211.00;;;16.67;61.22
78665;BME280;67981;51.022;-2.870;2023-06-14T02:53:01;101213.44;;;16.52;61.01
78665;BME280;67981;51.022;-2.870;2023-06-14T02:55:28;101218.56;;;16.44;61.61
78665;BME280;67981;51.022;-2.870;2023-06-14T02:57:53;101199.25;;;16.29;61.57
78665;BME280;67981;51.022;-2.870;2023-06-14T03:00:19;101214.84;;;16.24;62.55
78665;BME280;67981;51.022;-2.870;2023-06-14T03:02:45;101212.94;;;16.10;63.16
78665;BME280;67981;51.022;-2.870;2023-06-14T03:05:11;101224.88;;;15.93;64.71
78665;BME280;67981;51.022;-2.870;2023-06-14T03:07:36;101228.91;;;15.71;65.81
78665;BME280;67981;51.022;-2.870;2023-06-14T03:10:09;101230.56;;;15.66;65.43
78665;BME280;67981;51.022;-2.870;2023-06-14T03:12:35;101219.00;;;15.43;66.48
78665;BME280;67981;51.022;-2.870;2023-06-14T03:15:02;101219.66;;;15.33;66.29
78665;BME280;67981;51.022;-2.870;2023-06-14T03:17:27;101227.38;;;15.27;66.92
78665;BME280;67981;51.022;-2.870;2023-06-14T03:19:55;101224.44;;;15.06;67.88
78665;BME280;67981;51.022;-2.870;2023-06-14T03:22:20;101228.63;;;14.98;68.53
78665;BME280;67981;51.022;-2.870;2023-06-14T03:24:47;101215.41;;;14.84;69.26
78665;BME280;67981;51.022;-2.870;2023-06-14T03:27:13;101219.75;;;14.87;69.37
78665;BME280;67981;51.022;-2.870;2023-06-14T03:29:39;101212.03;;;14.90;68.79
78665;BME280;67981;51.022;-2.870;2023-06-14T03:32:05;101225.69;;;14.78;69.45
78665;BME280;67981;51.022;-2.870;2023-06-14T03:34:30;101228.25;;;14.77;69.48
78665;BME280;67981;51.022;-2.870;2023-06-14T03:36:56;101226.28;;;14.64;70.39
78665;BME280;67981;51.022;-2.870;2023-06-14T03:39:21;101222.63;;;14.53;70.49
78665;BME280;67981;51.022;-2.870;2023-06-14T03:41:47;101232.78;;;14.41;70.82
78665;BME280;67981;51.022;-2.870;2023-06-14T03:44:15;101229.25;;;14.39;70.93
78665;BME280;67981;51.022;-2.870;2023-06-14T03:46:40;101222.00;;;14.22;71.14
78665;BME280;67981;51.022;-2.870;2023-06-14T03:49:06;101230.81;;;14.29;71.27
78665;BME280;67981;51.022;-2.870;2023-06-14T03:51:31;101235.13;;;14.27;71.75
78665;BME280;67981;51.022;-2.870;2023-06-14T03:53:57;101237.44;;;14.15;71.47
78665;BME280;67981;51.022;-2.870;2023-06-14T03:56:22;101243.53;;;14.17;71.00
78665;BME280;67981;51.022;-2.870;2023-06-14T03:58:47;101239.13;;;14.14;71.15
78665;BME280;67981;51.022;-2.870;2023-06-14T04:01:13;101239.75;;;14.03;71.29
78665;BME280;67981;51.022;-2.870;2023-06-14T04:03:39;101240.25;;;13.85;71.28
78665;BME280;67981;51.022;-2.870;2023-06-14T04:06:05;101236.91;;;13.91;71.24
78665;BME280;67981;51.022;-2.870;2023-06-14T04:08:31;101241.06;;;13.83;72.03
78665;BME280;67981;51.022;-2.870;2023-06-14T04:10:57;101236.50;;;13.71;72.32
78665;BME280;67981;51.022;-2.870;2023-06-14T04:13:22;101241.78;;;13.76;71.75
78665;BME280;67981;51.022;-2.870;2023-06-14T04:15:47;101237.63;;;13.84;71.33
78665;BME280;67981;51.022;-2.870;2023-06-14T04:18:13;101238.13;;;13.68;72.05
78665;BME280;67981;51.022;-2.870;2023-06-14T04:20:38;101243.66;;;13.83;71.70
78665;BME280;67981;51.022;-2.870;2023-06-14T04:23:16;101239.47;;;13.88;71.92
78665;BME280;67981;51.022;-2.870;2023-06-14T04:25:43;101243.81;;;13.90;72.01
78665;BME280;67981;51.022;-2.870;2023-06-14T04:28:10;101241.81;;;13.77;72.42
78665;BME280;67981;51.022;-2.870;2023-06-14T04:30:36;101255.84;;;13.87;72.44
78665;BME280;67981;51.022;-2.870;2023-06-14T04:33:04;101244.66;;;13.88;72.24
78665;BME280;67981;51.022;-2.870;2023-06-14T04:35:31;101261.31;;;13.99;72.63
78665;BME280;67981;51.022;-2.870;2023-06-14T04:37:58;101258.53;;;13.90;72.93
78665;BME280;67981;51.022;-2.870;2023-06-14T04:40:24;101256.28;;;14.06;72.42
78665;BME280;67981;51.022;-2.870;2023-06-14T04:42:50;101263.78;;;14.33;70.56
78665;BME280;67981;51.022;-2.870;2023-06-14T04:45:16;101261.41;;;14.45;70.16
78665;BME280;67981;51.022;-2.870;2023-06-14T04:47:41;101258.13;;;14.54;68.96
78665;BME280;67981;51.022;-2.870;2023-06-14T04:50:07;101260.19;;;14.71;67.31
78665;BME280;67981;51.022;-2.870;2023-06-14T04:52:33;101261.16;;;14.76;65.91
78665;BME280;67981;51.022;-2.870;2023-06-14T04:55:00;101274.22;;;14.81;66.97
78665;BME280;67981;51.022;-2.870;2023-06-14T04:57:27;101276.16;;;14.92;67.39
78665;BME280;67981;51.022;-2.870;2023-06-14T04:59:52;101285.03;;;15.03;67.48
78665;BME280;67981;51.022;-2.870;2023-06-14T05:02:23;101278.13;;;15.04;68.13
78665;BME280;67981;51.022;-2.870;2023-06-14T05:04:50;101283.28;;;15.02;68.31
78665;BME280;67981;51.022;-2.870;2023-06-14T05:07:16;101283.41;;;15.10;68.40
78665;BME280;67981;51.022;-2.870;2023-06-14T05:09:41;101280.16;;;15.23;67.33
78665;BME280;67981;51.022;-2.870;2023-06-14T05:12:07;101282.88;;;15.29;66.16
78665;BME280;67981;51.022;-2.870;2023-06-14T05:14:36;101279.66;;;15.43;65.49
78665;BME280;67981;51.022;-2.870;2023-06-14T05:17:01;101286.81;;;15.56;62.60
78665;BME280;67981;51.022;-2.870;2023-06-14T05:19:27;101269.59;;;15.66;62.46
78665;BME280;67981;51.022;-2.870;2023-06-14T05:21:53;101281.72;;;15.64;63.27
78665;BME280;67981;51.022;-2.870;2023-06-14T05:24:19;101279.22;;;15.70;63.17
78665;BME280;67981;51.022;-2.870;2023-06-14T05:26:45;101280.00;;;15.65;63.53
78665;BME280;67981;51.022;-2.870;2023-06-14T05:29:10;101281.84;;;15.72;63.37
78665;BME280;67981;51.022;-2.870;2023-06-14T05:31:36;101273.91;;;15.64;63.99
78665;BME280;67981;51.022;-2.870;2023-06-14T05:34:01;101276.31;;;15.50;65.58
78665;BME280;67981;51.022;-2.870;2023-06-14T05:36:27;101276.41;;;15.56;66.89
78665;BME280;67981;51.022;-2.870;2023-06-14T05:38:53;101287.75;;;15.62;67.79
78665;BME280;67981;51.022;-2.870;2023-06-14T05:41:28;101281.88;;;15.73;67.84
78665;BME280;67981;51.022;-2.870;2023-06-14T05:43:56;101281.97;;;15.81;67.68
78665;BME280;67981;51.022;-2.870;2023-06-14T05:46:22;101288.84;;;15.77;67.35
78665;BME280;67981;51.022;-2.870;2023-06-14T05:48:54;101292.41;;;15.84;65.59
78665;BME280;67981;51.022;-2.870;2023-06-14T05:51:20;101283.78;;;15.86;67.20
78665;BME280;67981;51.022;-2.870;2023-06-14T05:53:49;101291.88;;;16.04;67.79
78665;BME280;67981;51.022;-2.870;2023-06-14T05:56:15;101277.00;;;15.97;67.90
78665;BME280;67981;51.022;-2.870;2023-06-14T05:58:40;101293.59;;;16.04;68.44
78665;BME280;67981;51.022;-2.870;2023-06-14T06:01:06;101288.63;;;16.23;67.55
78665;BME280;67981;51.022;-2.870;2023-06-14T06:03:31;101292.19;;;16.28;66.93
78665;BME280;67981;51.022;-2.870;2023-06-14T06:05:58;101289.22;;;16.03;67.47
78665;BME280;67981;51.022;-2.870;2023-06-14T06:08:23;101292.78;;;16.09;67.18
78665;BME280;67981;51.022;-2.870;2023-06-14T06:10:48;101300.69;;;16.15;67.76
78665;BME280;67981;51.022;-2.870;2023-06-14T06:13:14;101292.88;;;16.17;66.51
78665;BME280;67981;51.022;-2.870;2023-06-14T06:15:39;101290.16;;;16.09;63.43
78665;BME280;67981;51.022;-2.870;2023-06-14T06:18:05;101297.19;;;16.15;63.89
78665;BME280;67981;51.022;-2.870;2023-06-14T06:20:30;101304.34;;;16.31;62.82
78665;BME280;67981;51.022;-2.870;2023-06-14T06:22:59;101311.78;;;16.69;62.09
78665;BME280;67981;51.022;-2.870;2023-06-14T06:25:26;101318.88;;;16.81;60.61
78665;BME280;67981;51.022;-2.870;2023-06-14T06:27:57;101306.06;;;17.04;58.95
78665;BME280;67981;51.022;-2.870;2023-06-14T06:30:22;101304.25;;;16.95;56.67
78665;BME280;67981;51.022;-2.870;2023-06-14T06:32:47;101312.50;;;16.56;57.67
78665;BME280;67981;51.022;-2.870;2023-06-14T06:35:13;101316.28;;;16.84;56.95
78665;BME280;67981;51.022;-2.870;2023-06-14T06:37:39;101323.44;;;17.02;55.73
78665;BME280;67981;51.022;-2.870;2023-06-14T06:40:05;101311.38;;;17.14;53.48
78665;BME280;67981;51.022;-2.870;2023-06-14T06:42:31;101319.16;;;17.08;51.67
78665;BME280;67981;51.022;-2.870;2023-06-14T06:44:57;101314.91;;;17.19;51.03
78665;BME280;67981;51.022;-2.870;2023-06-14T06:47:22;101308.16;;;17.42;50.74
78665;BME280;67981;51.022;-2.870;2023-06-14T06:49:48;101311.91;;;17.73;49.75
78665;BME280;67981;51.022;-2.870;2023-06-14T06:52:13;101298.97;;;17.88;49.48
78665;BME280;67981;51.022;-2.870;2023-06-14T06:54:39;101306.34;;;17.34;49.72
78665;BME280;67981;51.022;-2.870;2023-06-14T06:57:05;101311.81;;;17.61;49.23
78665;BME280;67981;51.022;-2.870;2023-06-14T06:59:31;101301.97;;;17.31;50.70
78665;BME280;67981;51.022;-2.870;2023-06-14T07:01:57;101311.59;;;17.38;49.37
78665;BME280;67981;51.022;-2.870;2023-06-14T07:04:22;101298.41;;;17.19;51.41
78665;BME280;67981;51.022;-2.870;2023-06-14T07:06:48;101315.88;;;17.30;52.07
78665;BME280;67981;51.022;-2.870;2023-06-14T07:09:13;101313.84;;;16.98;50.34
78665;BME280;67981;51.022;-2.870;2023-06-14T07:11:40;101315.00;;;17.27;49.50
78665;BME280;67981;51.022;-2.870;2023-06-14T07:14:06;101306.50;;;17.49;49.79
78665;BME280;67981;51.022;-2.870;2023-06-14T07:16:32;101316.81;;;17.40;48.74
78665;BME280;67981;51.022;-2.870;2023-06-14T07:18:57;101310.13;;;17.69;49.44
78665;BME280;67981;51.022;-2.870;2023-06-14T07:21:22;101292.72;;;17.66;48.69
78665;BME280;67981;51.022;-2.870;2023-06-14T07:23:48;101311.19;;;17.99;49.11
78665;BME280;67981;51.022;-2.870;2023-06-14T07:26:13;101305.72;;;17.59;48.94
78665;BME280;67981;51.022;-2.870;2023-06-14T07:28:38;101306.25;;;17.23;48.88
78665;BME280;67981;51.022;-2.870;2023-06-14T07:31:04;101317.66;;;17.36;47.63
78665;BME280;67981;51.022;-2.870;2023-06-14T07:33:29;101315.28;;;17.60;47.58
78665;BME280;67981;51.022;-2.870;2023-06-14T07:35:54;101313.63;;;17.74;49.07
78665;BME280;67981;51.022;-2.870;2023-06-14T07:38:20;101328.31;;;17.55;50.26
78665;BME280;67981;51.022;-2.870;2023-06-14T07:40:45;101314.25;;;17.41;50.00
78665;BME280;67981;51.022;-2.870;2023-06-14T07:43:11;101314.56;;;17.82;49.84
78665;BME280;67981;51.022;-2.870;2023-06-14T07:45:37;101316.63;;;18.37;47.70
78665;BME280;67981;51.022;-2.870;2023-06-14T07:48:02;101328.00;;;18.39;46.90
78665;BME280;67981;51.022;-2.870;2023-06-14T07:50:28;101332.41;;;18.55;46.16
78665;BME280;67981;51.022;-2.870;2023-06-14T07:52:54;101328.94;;;18.61;45.29
78665;BME280;67981;51.022;-2.870;2023-06-14T07:55:19;101338.41;;;18.36;46.03
78665;BME280;67981;51.022;-2.870;2023-06-14T07:57:45;101320.09;;;18.33;47.30
78665;BME280;67981;51.022;-2.870;2023-06-14T08:00:10;101312.28;;;18.38;47.71
78665;BME280;67981;51.022;-2.870;2023-06-14T08:02:44;101333.94;;;18.17;47.50
78665;BME280;67981;51.022;-2.870;2023-06-14T08:05:13;101333.09;;;18.25;48.11
78665;BME280;67981;51.022;-2.870;2023-06-14T08:07:39;101326.06;;;18.14;48.70
78665;BME280;67981;51.022;-2.870;2023-06-14T08:10:05;101338.31;;;18.22;48.91
78665;BME280;67981;51.022;-2.870;2023-06-14T08:12:31;101326.97;;;18.20;49.05
78665;BME280;67981;51.022;-2.870;2023-06-14T08:14:56;101320.25;;;18.74;48.40
78665;BME280;67981;51.022;-2.870;2023-06-14T08:17:22;101318.50;;;18.65;48.07
78665;BME280;67981;51.022;-2.870;2023-06-14T08:19:47;101330.81;;;19.13;48.21
78665;BME280;67981;51.022;-2.870;2023-06-14T08:22:13;101316.84;;;19.09;46.45
78665;BME280;67981;51.022;-2.870;2023-06-14T08:24:38;101326.47;;;19.24;46.45
78665;BME280;67981;51.022;-2.870;2023-06-14T08:27:05;101333.44;;;19.02;46.18
78665;BME280;67981;51.022;-2.870;2023-06-14T08:29:31;101317.66;;;18.75;48.25
78665;BME280;67981;51.022;-2.870;2023-06-14T08:31:56;101317.78;;;19.40;45.78
78665;BME280;67981;51.022;-2.870;2023-06-14T08:34:22;101315.16;;;19.59;43.92
78665;BME280;67981;51.022;-2.870;2023-06-14T08:36:50;101317.75;;;19.81;41.54
78665;BME280;67981;51.022;-2.870;2023-06-14T08:39:16;101312.53;;;19.75;41.94
78665;BME280;67981;51.022;-2.870;2023-06-14T08:41:42;101327.38;;;19.71;41.97
78665;BME280;67981;51.022;-2.870;2023-06-14T08:44:09;101336.06;;;19.90;41.60
78665;BME280;67981;51.022;-2.870;2023-06-14T08:46:37;101348.31;;;19.62;40.72
78665;BME280;67981;51.022;-2.870;2023-06-14T08:49:03;101336.09;;;19.44;42.96
78665;BME280;67981;51.022;-2.870;2023-06-14T08:51:31;101337.00;;;19.34;42.48
78665;BME280;67981;51.022;-2.870;2023-06-14T08:54:02;101324.78;;;19.51;42.51
78665;BME280;67981;51.022;-2.870;2023-06-14T08:56:29;101330.81;;;20.02;42.08
78665;BME280;67981;51.022;-2.870;2023-06-14T08:58:58;101324.72;;;20.16;39.80
78665;BME280;67981;51.022;-2.870;2023-06-14T09:01:28;101332.53;;;20.06;40.77
78665;BME280;67981;51.022;-2.870;2023-06-14T09:03:54;101337.84;;;19.74;41.98
78665;BME280;67981;51.022;-2.870;2023-06-14T09:06:23;101331.72;;;19.90;43.00
78665;BME280;67981;51.022;-2.870;2023-06-14T09:08:50;101339.56;;;20.04;39.67
78665;BME280;67981;51.022;-2.870;2023-06-14T09:11:17;101327.25;;;20.39;38.14
78665;BME280;67981;51.022;-2.870;2023-06-14T09:13:44;101337.75;;;20.37;39.52
78665;BME280;67981;51.022;-2.870;2023-06-14T09:16:10;101330.72;;;20.48;39.58
78665;BME280;67981;51.022;-2.870;2023-06-14T09:18:37;101345.63;;;20.24;39.38
78665;BME280;67981;51.022;-2.870;2023-06-14T09:21:03;101326.28;;;20.58;38.85
78665;BME280;67981;51.022;-2.870;2023-06-14T09:23:33;101341.88;;;20.86;38.21
78665;BME280;67981;51.022;-2.870;2023-06-14T09:25:59;101334.81;;;21.03;36.78
78665;BME280;67981;51.022;-2.870;2023-06-14T09:28:27;101323.34;;;21.20;37.33
78665;BME280;67981;51.022;-2.870;2023-06-14T09:30:53;101346.25;;;20.90;36.91
78665;BME280;67981;51.022;-2.870;2023-06-14T09:33:18;101341.84;;;20.95;38.20
78665;BME280;67981;51.022;-2.870;2023-06-14T09:35:51;101335.72;;;20.96;37.10
78665;BME280;67981;51.022;-2.870;2023-06-14T09:38:16;101336.47;;;21.17;36.94
78665;BME280;67981;51.022;-2.870;2023-06-14T09:40:41;101321.53;;;21.23;36.79
78665;BME280;67981;51.022;-2.870;2023-06-14T09:43:07;101327.59;;;21.34;35.62
78665;BME280;67981;51.022;-2.870;2023-06-14T09:45:36;101341.81;;;21.03;36.24
78665;BME280;67981;51.022;-2.870;2023-06-14T09:48:04;101337.53;;;20.85;37.68
78665;BME280;67981;51.022;-2.870;2023-06-14T09:50:31;101339.00;;;21.32;38.46
78665;BME280;67981;51.022;-2.870;2023-06-14T09:53:10;101341.84;;;20.94;37.66
78665;BME280;67981;51.022;-2.870;2023-06-14T09:55:36;101330.19;;;21.40;37.26
78665;BME280;67981;51.022;-2.870;2023-06-14T09:58:05;101343.50;;;21.13;35.87
78665;BME280;67981;51.022;-2.870;2023-06-14T10:00:32;101339.81;;;21.38;36.13
78665;BME280;67981;51.022;-2.870;2023-06-14T10:03:03;101339.66;;;21.58;36.51
78665;BME280;67981;51.022;-2.870;2023-06-14T10:05:31;101337.75;;;21.81;35.84
78665;BME280;67981;51.022;-2.870;2023-06-14T10:08:07;101341.69;;;22.22;35.76
78665;BME280;67981;51.022;-2.870;2023-06-14T10:10:33;101351.69;;;21.87;35.16
78665;BME280;67981;51.022;-2.870;2023-06-14T10:12:58;101343.06;;;21.67;34.54
78665;BME280;67981;51.022;-2.870;2023-06-14T10:21:27;101334.06;;;21.98;34.48
78665;BME280;67981;51.022;-2.870;2023-06-14T10:23:55;101323.47;;;22.04;35.44
78665;BME280;67981;51.022;-2.870;2023-06-14T10:26:22;101334.47;;;22.38;34.23
78665;BME280;67981;51.022;-2.870;2023-06-14T10:29:01;101337.25;;;22.27;34.37
78665;BME280;67981;51.022;-2.870;2023-06-14T10:31:42;101325.75;;;22.34;33.61
78665;BME280;67981;51.022;-2.870;2023-06-14T10:34:08;101336.50;;;22.16;34.57
78665;BME280;67981;51.022;-2.870;2023-06-14T10:36:34;101326.75;;;22.23;35.03
78665;BME280;67981;51.022;-2.870;2023-06-14T10:39:17;101328.69;;;22.80;33.78
78665;BME280;67981;51.022;-2.870;2023-06-14T10:41:52;101326.38;;;22.58;32.97
78665;BME280;67981;51.022;-2.870;2023-06-14T10:46:47;101328.97;;;22.61;33.63
78665;BME280;67981;51.022;-2.870;2023-06-14T10:49:16;101321.72;;;22.76;31.77
78665;BME280;67981;51.022;-2.870;2023-06-14T10:51:45;101320.97;;;22.68;30.68
78665;BME280;67981;51.022;-2.870;2023-06-14T10:54:13;101331.16;;;22.91;31.52
78665;BME280;67981;51.022;-2.870;2023-06-14T10:56:46;101322.66;;;22.74;30.94
78665;BME280;67981;51.022;-2.870;2023-06-14T10:59:12;101318.97;;;22.85;31.28
78665;BME280;67981;51.022;-2.870;2023-06-14T11:04:50;101321.22;;;23.12;31.17
78665;BME280;67981;51.022;-2.870;2023-06-14T11:07:40;101318.16;;;22.82;30.88
78665;BME280;67981;51.022;-2.870;2023-06-14T11:12:48;101311.09;;;22.84;31.06
78665;BME280;67981;51.022;-2.870;2023-06-14T11:15:13;101296.56;;;23.18;30.46
78665;BME280;67981;51.022;-2.870;2023-06-14T11:17:39;101298.38;;;23.13;30.35
78665;BME280;67981;51.022;-2.870;2023-06-14T11:20:12;101294.75;;;23.20;30.47
78665;BME280;67981;51.022;-2.870;2023-06-14T11:22:44;101282.94;;;23.46;29.38
78665;BME280;67981;51.022;-2.870;2023-06-14T11:25:13;101289.59;;;23.65;29.59
78665;BME280;67981;51.022;-2.870;2023-06-14T11:27:38;101289.34;;;23.81;30.57
78665;BME280;67981;51.022;-2.870;2023-06-14T11:30:07;101292.72;;;23.87;30.15
78665;BME280;67981;51.022;-2.870;2023-06-14T11:32:32;101298.00;;;23.87;31.59
78665;BME280;67981;51.022;-2.870;2023-06-14T11:34:58;101290.09;;;23.87;30.58
78665;BME280;67981;51.022;-2.870;2023-06-14T11:37:26;101273.59;;;23.77;30.83
78665;BME280;67981;51.022;-2.870;2023-06-14T11:39:59;101283.84;;;23.91;31.25
78665;BME280;67981;51.022;-2.870;2023-06-14T11:42:26;101277.66;;;23.94;31.60
78665;BME280;67981;51.022;-2.870;2023-06-14T11:44:53;101281.28;;;23.88;30.40
78665;BME280;67981;51.022;-2.870;2023-06-14T11:47:19;101275.16;;;23.86;31.78
78665;BME280;67981;51.022;-2.870;2023-06-14T11:49:44;101268.19;;;23.84;29.82
78665;BME280;67981;51.022;-2.870;2023-06-14T11:52:10;101272.59;;;23.83;29.04
78665;BME280;67981;51.022;-2.870;2023-06-14T11:54:36;101273.91;;;24.07;29.16
78665;BME280;67981;51.022;-2.870;2023-06-14T11:57:03;101268.31;;;24.22;28.50
78665;BME280;67981;51.022;-2.870;2023-06-14T11:59:28;101267.41;;;24.64;29.91
78665;BME280;67981;51.022;-2.870;2023-06-14T12:01:56;101266.47;;;24.27;28.36
78665;BME280;67981;51.022;-2.870;2023-06-14T12:04:28;101272.09;;;24.51;29.02
78665;BME280;67981;51.022;-2.870;2023-06-14T12:06:54;101268.47;;;24.55;28.77
78665;BME280;67981;51.022;-2.870;2023-06-14T12:09:21;101268.53;;;24.52;28.61
78665;BME280;67981;51.022;-2.870;2023-06-14T12:11:48;101256.59;;;24.76;28.55
78665;BME280;67981;51.022;-2.870;2023-06-14T12:14:14;101261.88;;;24.77;29.02
78665;BME280;67981;51.022;-2.870;2023-06-14T12:16:40;101256.59;;;24.76;28.69
78665;BME280;67981;51.022;-2.870;2023-06-14T12:19:14;101255.13;;;25.01;28.45
78665;BME280;67981;51.022;-2.870;2023-06-14T12:21:40;101255.81;;;25.09;28.11
78665;BME280;67981;51.022;-2.870;2023-06-14T12:24:07;101252.25;;;24.73;28.50
78665;BME280;67981;51.022;-2.870;2023-06-14T12:26:32;101244.84;;;25.26;28.51
78665;BME280;67981;51.022;-2.870;2023-06-14T12:28:58;101264.22;;;25.25;28.78
78665;BME280;67981;51.022;-2.870;2023-06-14T12:31:24;101243.13;;;24.88;29.40
78665;BME280;67981;51.022;-2.870;2023-06-14T12:33:49;101266.94;;;24.86;29.22
78665;BME280;67981;51.022;-2.870;2023-06-14T12:36:16;101246.72;;;24.84;29.41
78665;BME280;67981;51.022;-2.870;2023-06-14T12:38:42;101258.34;;;25.13;29.40
78665;BME280;67981;51.022;-2.870;2023-06-14T12:41:07;101245.13;;;25.49;30.14
78665;BME280;67981;51.022;-2.870;2023-06-14T12:43:33;101254.09;;;25.43;28.64
78665;BME280;67981;51.022;-2.870;2023-06-14T12:45:59;101248.38;;;25.58;29.57
78665;BME280;67981;51.022;-2.870;2023-06-14T12:48:25;101248.16;;;25.67;29.24
78665;BME280;67981;51.022;-2.870;2023-06-14T12:50:52;101234.63;;;25.78;29.24
78665;BME280;67981;51.022;-2.870;2023-06-14T12:53:18;101245.88;;;25.86;30.34
78665;BME280;67981;51.022;-2.870;2023-06-14T12:55:43;101257.78;;;25.70;29.35
78665;BME280;67981;51.022;-2.870;2023-06-14T12:58:09;101250.69;;;25.72;29.63